Klamath Falls, OR

4:59 PM PST on March 05, 2015 (GMT -0800)
MesoWest SWAN LAKE MTN OR US SNOTEL | Change Station
CLOSE
Current Station
Personal Weather Station
Location: Klamath Falls, OR
Elevation: 6799 ft
Nearby Weather Stations

Elev 6799 ft 42.41 °N, 121.74 °W | Updated 2 days ago

Clear
Clear
43 °F
Feels Like 43 °F
N
2
Wind Variable Wind from East
Gusts mph

Today
High -- | Low -- °F
--% Chance of Precip.
Yesterday
High -- | Low -- °F
Precip. -- in
6:36 AM 6:01 PM
Full, 100% visible
Pressure 30.31 in
Visibility 10.0 miles
Clouds Clear
Dew Point 25 °F
Humidity 50%
Rainfall in
Snow Depth Not available.
UV 1 out of 12
Pollen 4.90 out of 12
Air Quality Not available.
Flu Activity Not available.
METAR KLMT 060053Z 00000KT 10SM CLR 16/M09 A3031 RMK AO2 SLP264 T01561094

More Conditions Fewer Conditions

Pressure 30.31 in
Visibility 10.0 miles
Clouds Clear
Dew Point 25 °F
Humidity 50%
Rainfall in
Snow Depth Not available.
UV 1 out of 12
Pollen 4.90 out of 12
Air Quality Not available.
Flu Activity Not available.
METAR KLMT 060053Z 00000KT 10SM CLR 16/M09 A3031 RMK AO2 SLP264 T01561094

More Conditions Fewer Conditions

10-Day Weather Forecast

Almanac

Astronomy

Mar. 05, 2015 Rise Set
Actual Time
Civil Twilight
Nautical Twilight
Astronomical Twilight
Moon
Length of Visible Light
Length of Day
Tomorrow will be .
, % of the Moon is Illuminated

Today's Extremes

State Highs State Lows

Community

WunderPhotos

Upload Photos

1,803,076 photos uploaded!

WunderBlogs® & News

Nearby

Air Quality

  Air Quality AQ Index Pollutant
Not available.

Snow Depth

Station Depth Elevation

Earthquake Activity

City Distance Mag. Time & Date
Minimum magnitude displayed is 2.5.

Coastal Water Temperatures

Place Temperature

Nearby Weather Stations